aviador You're here:

KOVS Decoded Metar

BOSCOBEL in WI, USA
Report Time2017-05-29 02:53:00
UTC Time2017-05-29 03:50:28
Flight Rules vfr VFR
Wind250° at 03 kt
W.Decomp.*RWY 25: 3.0 kt HW 0.1 kt RCW
RWY 20: 1.9 kt HW 2.3 kt RCW
W.Rank250° ranks 11
Current wind is below 250° avg. (6.5)
Visibility9999 m
Phenomena:N/A
Clouds:N/A
Expected CloudBase > 1,600 ft AGL from Temp-Dew spread
CeilingNone
Temp15°C (ISA +1)
Dew Point11°C (77% RH)
AAT14.2°C
QNH1007 hPa
Density Alt1,201 ft
Elevation663 ft
Report Wrong Elevation
Raw Report
METAR KOVS 290253Z AUTO 25003KT 10SM CLR 15/11 A2975 RMK AO2 SLP073
T01500111 53004=

Extra information for KOVS:More info

Metar Taf Metar & Taf Last 4 Metars F.Rules Stats Wind Profile Meteogram Temp Stats Airport Information Weather charts Add Link Nearby VenuesMetar ALERT Operation Metar Decoded Social comments

AIRNAV info for KOVS